메인 페이지
METAR-TAF:

METAR-TAF

공항 :

Churchill, 매니토바, 캐나다

위도: 58-44N, 경도: 094-04W, 고도: 28m

현재 날씨관측

예보는 47분 전, 23:00시(UTC)에 발표되었습니다.
남동19kt
온도 20°C
습도 56%
기압 1018 hPa
시정: 24.1km
고도 13000ft 상공 구름 조금
고도 30000ft 상공 흐림

METAR: CYYQ 222300Z 14019KT 15SM FEW130 OVC300 20/11 A3005 RMK AC2CI6 SLP180 DENSITY ALT 600FT

시각: 18:47 (23:47 UTC)

예보

예보는 6 시간 9분 전, 17:38시(UTC)에 발표되었습니다.
예보 대상 시간: 22일 18시부터 23일 18시까지 (UTC)
12kt
시정: 10km
고도 25000ft 상공 구름 조금
전환 중
22일 19시부터 22일 21시까지 (UTC)
동남동12kt
23일 0000시부터 (UTC)
12kt
시정: 10km
고도 10000ft 상공 구름 많음
시계 내 소나기

TAF: CYYQ 221738Z 2218/2318 17012KT P6SM FEW250 BECMG 2219/2221 12012KT FM230000 10012KT P6SM VCSH BKN100 RMK NXT FCST BY 230000Z

4,000개 이상의 공항 관측 자료 및 예보 (METAR 및 TAF 보고).

지도상에서 검색 가능한 기상관측소가 노란 점과 빨간 점으로 표시되어 있습니다.

기상관측소 명을 보려면 표시 위로 마우스를 이동하세요.

날씨 관측과 예보를 보려면 클릭하세요.

지도 변경 : 확대하려면 엑스 표시가 있는 녹색 버튼, 축소하려면 빼기 표시가 있는 녹색 버튼, 다음 페이지의 지도를 보려면 녹색 화살표를 클릭하세요.


METAR-TAF: